Time;durP1;ratioP1;P1;durP2;ratioP2;P2;SDS_P1;SDS_P2;PMS_P1;PMS_P2;Temp;Humidity;BMP_temperature;BMP_pressure;BME280_temperature;BME280_humidity;BME280_pressure;Samples;Min_cycle;Max_cycle;Signal;HPM_P1;HPM_P2
2022/10/22 00:02:08;;;;;;;200.18;45.95;;;;;;;10.27;100.00;100795.19;12945982;22;20011;-92
2022/10/22 00:07:08;;;;;;;89.75;37.53;;;;;;;10.12;100.00;100757.31;12919831;22;20023;-85
2022/10/22 00:12:09;;;;;;;92.80;35.72;;;;;;;10.36;100.00;100801.16;12917054;22;20023;-85
2022/10/22 00:17:09;;;;;;;83.85;36.38;;;;;;;10.13;100.00;100807.66;12918195;22;20004;-92
2022/10/22 00:22:10;;;;;;;80.63;34.95;;;;;;;9.32;100.00;100690.72;12899646;22;20011;-92
2022/10/22 00:27:11;;;;;;;85.15;34.13;;;;;;;9.83;100.00;100798.69;12899981;22;20098;-91
2022/10/22 00:32:11;;;;;;;73.93;31.77;;;;;;;8.76;100.00;100652.16;12898527;22;20103;-92
2022/10/22 00:37:12;;;;;;;102.35;36.17;;;;;;;9.14;100.00;100730.25;12883606;22;20008;-91
2022/10/22 00:42:18;;;;;;;79.32;32.35;;;;;;;8.92;100.00;100746.63;12893495;22;20011;-84
2022/10/22 00:47:19;;;;;;;91.33;32.63;;;;;;;9.34;100.00;100800.34;12900723;22;20322;-92
2022/10/22 00:52:20;;;;;;;64.97;30.50;;;;;;;9.37;100.00;100835.59;12905060;22;20247;-92
2022/10/22 00:57:20;;;;;;;70.25;30.92;;;;;;;9.15;100.00;100769.53;12895696;22;20011;-85
2022/10/22 01:02:21;;;;;;;71.47;32.50;;;;;;;8.61;100.00;100715.00;12896487;22;19996;-92
2022/10/22 01:07:22;;;;;;;71.28;32.78;;;;;;;8.33;100.00;100652.72;12894778;22;20079;-85
2022/10/22 01:12:44;;;;;;;63.05;29.45;;;;;;;9.16;100.00;100826.97;12919350;22;20023;-85
2022/10/22 01:18:13;;;;;;;74.38;30.02;;;;;;;9.83;100.00;100903.19;12906319;22;20019;-85
2022/10/22 01:23:14;;;;;;;61.35;29.08;;;;;;;8.80;100.00;100751.31;12909245;22;20042;-84
2022/10/22 01:28:36;;;;;;;60.83;29.20;;;;;;;8.88;100.00;100781.13;12941688;22;20031;-84
2022/10/22 01:33:36;;;;;;;75.20;30.30;;;;;;;8.87;100.00;100779.47;12941926;22;20006;-84
2022/10/22 01:38:37;;;;;;;56.30;27.63;;;;;;;9.26;100.00;100815.31;12892865;22;20083;-85
2022/10/22 01:43:37;;;;;;;60.03;28.63;;;;;;;8.91;100.00;100758.69;12891185;22;20374;-84
2022/10/22 01:48:58;;;;;;;54.72;26.90;;;;;;;9.40;100.00;100816.69;12942241;22;20015;-84
2022/10/22 01:54:16;;;;;;;54.10;26.40;;;;;;;9.52;100.00;100848.78;12920952;22;20168;-91
2022/10/22 01:59:55;;;;;;;56.75;26.35;;;;;;;9.60;100.00;100843.69;12921316;22;20043;-91
2022/10/22 02:05:08;;;;;;;56.70;26.10;;;;;;;9.64;100.00;100844.88;12856461;22;20375;-84
2022/10/22 02:10:08;;;;;;;56.97;28.85;;;;;;;9.75;100.00;100817.53;12969033;22;20018;-91
2022/10/22 02:15:09;;;;;;;59.65;29.05;;;;;;;9.66;100.00;100787.72;12862537;22;20031;-90
2022/10/22 02:20:18;;;;;;;57.97;28.35;;;;;;;9.31;100.00;100708.28;12853392;22;20030;-90
2022/10/22 02:25:20;;;;;;;64.20;26.80;;;;;;;9.06;100.00;100679.31;12832761;22;20056;-91
2022/10/22 02:30:21;;;;;;;68.88;27.92;;;;;;;10.42;100.00;100894.53;12847702;22;20016;-90
2022/10/22 02:35:22;;;;;;;70.50;29.08;;;;;;;9.55;100.00;100743.81;12818509;22;20000;-91
2022/10/22 02:40:23;;;;;;;64.60;28.00;;;;;;;10.49;100.00;100900.69;12828298;22;20008;-84
2022/10/22 02:45:24;;;;;;;66.32;26.63;;;;;;;9.13;100.00;100694.81;12851233;22;20039;-85
2022/10/22 02:50:24;;;;;;;69.13;27.08;;;;;;;9.69;100.00;100822.13;12855483;22;20381;-92
2022/10/22 02:55:28;;;;;;;56.30;26.38;;;;;;;9.93;100.00;100846.72;12828703;22;20055;-85
2022/10/22 03:00:28;;;;;;;73.78;26.65;;;;;;;9.70;100.00;100840.28;12850937;22;20012;-84
2022/10/22 03:05:29;;;;;;;67.13;26.95;;;;;;;9.78;100.00;100841.81;12852159;22;20091;-92
2022/10/22 03:10:29;;;;;;;60.00;26.20;;;;;;;9.68;100.00;100824.03;12827678;22;20012;-84
2022/10/22 03:15:30;;;;;;;78.22;29.02;;;;;;;8.61;100.00;100682.09;12922274;22;20047;-91
2022/10/22 03:20:30;;;;;;;65.82;27.52;;;;;;;9.80;100.00;100887.19;12891702;22;20004;-84
2022/10/22 03:25:33;;;;;;;68.70;27.40;;;;;;;9.02;100.00;100760.53;12888620;22;20004;-91
2022/10/22 03:30:33;;;;;;;75.20;29.63;;;;;;;8.54;100.00;100698.72;12893904;22;20113;-92
2022/10/22 03:35:37;;;;;;;80.55;30.30;;;;;;;9.14;100.00;100785.19;12891885;22;20073;-92
2022/10/22 03:40:37;;;;;;;69.43;29.15;;;;;;;9.47;100.00;100852.28;12892986;22;20422;-91
2022/10/22 03:45:38;;;;;;;77.38;30.52;;;;;;;9.34;100.00;100849.81;12914484;22;20012;-85
2022/10/22 03:50:38;;;;;;;76.47;30.80;;;;;;;9.84;100.00;100937.03;12890480;22;20442;-92
2022/10/22 03:55:40;;;;;;;74.68;29.80;;;;;;;8.47;100.00;100737.28;12892962;22;20074;-92
2022/10/22 04:00:40;;;;;;;77.20;30.60;;;;;;;9.08;100.00;100863.91;12891404;22;20003;-85
2022/10/22 04:05:41;;;;;;;71.07;30.25;;;;;;;9.03;100.00;100852.84;12888236;22;20324;-85
2022/10/22 04:10:41;;;;;;;77.25;31.55;;;;;;;9.29;100.00;100864.28;12911979;22;20019;-84
2022/10/22 04:15:42;;;;;;;83.32;34.67;;;;;;;8.71;100.00;100774.78;12912334;22;20020;-85
2022/10/22 04:20:42;;;;;;;75.85;33.78;;;;;;;9.21;100.00;100883.91;12916203;22;20173;-85
2022/10/22 04:25:43;;;;;;;79.30;34.25;;;;;;;9.27;100.00;100894.75;12889809;22;20533;-92
2022/10/22 04:30:43;;;;;;;72.82;34.22;;;;;;;8.98;100.00;100840.91;12916127;22;20016;-91
2022/10/22 04:35:44;;;;;;;85.25;35.10;;;;;;;8.94;100.00;100815.84;12892160;22;20346;-91
2022/10/22 04:40:44;;;;;;;85.55;34.20;;;;;;;9.40;100.00;100893.63;12895168;22;20011;-92
2022/10/22 04:45:45;;;;;;;74.80;34.30;;;;;;;8.98;100.00;100833.50;12893784;22;20004;-84
2022/10/22 04:50:45;;;;;;;78.40;34.72;;;;;;;9.33;100.00;100879.22;12919154;22;20019;-91
2022/10/22 04:55:46;;;;;;;77.97;35.10;;;;;;;9.20;100.00;100850.13;12896452;22;20015;-91
2022/10/22 05:00:47;;;;;;;89.10;36.28;;;;;;;8.74;100.00;100812.69;12890700;22;20007;-84
2022/10/22 05:05:47;;;;;;;86.15;35.75;;;;;;;8.95;100.00;100820.28;12890920;22;20011;-92
2022/10/22 05:10:48;;;;;;;79.20;35.63;;;;;;;8.56;100.00;100756.06;12868917;22;20438;-91
2022/10/22 05:15:48;;;;;;;85.75;35.78;;;;;;;8.94;100.00;100793.88;12892880;22;20081;-91
2022/10/22 05:20:49;;;;;;;81.22;35.15;;;;;;;9.29;100.00;100842.31;12892541;22;20014;-92
2022/10/22 05:25:49;;;;;;;88.65;37.92;;;;;;;9.26;100.00;100831.81;12894047;22;20082;-84
2022/10/22 05:30:56;;;;;;;100.32;39.90;;;;;;;9.95;100.00;100940.81;12890787;22;20088;-84
2022/10/22 05:35:57;;;;;;;126.47;42.08;;;;;;;9.76;100.00;100894.28;12894056;22;20007;-91
2022/10/22 05:41:02;;;;;;;106.57;42.08;;;;;;;9.37;100.00;100821.84;12891224;22;20053;-85
2022/10/22 05:46:07;;;;;;;103.78;41.10;;;;;;;9.60;100.00;100862.09;12893273;22;20381;-92
2022/10/22 05:51:11;;;;;;;101.90;40.65;;;;;;;9.14;100.00;100795.34;12918044;22;20095;-84
2022/10/22 05:56:15;;;;;;;114.55;42.53;;;;;;;9.40;100.00;100888.13;12891782;22;20008;-84
2022/10/22 06:01:16;;;;;;;100.45;39.88;;;;;;;9.88;100.00;100973.94;12893591;22;20004;-84
2022/10/22 06:06:26;;;;;;;99.72;42.58;;;;;;;9.94;100.00;100964.69;12918604;22;20007;-85
2022/10/22 06:11:26;;;;;;;99.10;41.70;;;;;;;8.58;100.00;100776.72;12944589;22;20485;-92
2022/10/22 06:16:30;;;;;;;109.78;43.08;;;;;;;9.25;100.00;100918.06;12901272;22;20020;-84
2022/10/22 06:21:31;;;;;;;116.60;43.85;;;;;;;8.85;100.00;100826.38;12893875;22;20388;-92
2022/10/22 06:26:32;;;;;;;117.10;44.95;;;;;;;8.88;100.00;100806.66;12894449;22;20057;-91
2022/10/22 06:31:35;;;;;;;103.85;42.45;;;;;;;9.65;100.00;100933.66;12895739;22;20012;-83
2022/10/22 06:36:36;;;;;;;96.50;42.65;;;;;;;9.29;100.00;100887.09;12892013;22;20033;-84
2022/10/22 06:41:36;;;;;;;103.13;44.58;;;;;;;9.99;100.00;100940.03;12890930;22;20069;-91
2022/10/22 06:46:37;;;;;;;114.07;44.97;;;;;;;9.65;100.00;100886.91;12889203;22;20081;-83
2022/10/22 06:51:37;;;;;;;109.63;45.38;;;;;;;9.79;100.00;100896.53;12918761;22;20015;-84
2022/10/22 06:56:38;;;;;;;92.32;41.65;;;;;;;9.61;100.00;100850.00;12890197;22;20486;-84
2022/10/22 07:01:39;;;;;;;99.65;46.42;;;;;;;9.80;100.00;100859.72;12939887;22;20296;-84
2022/10/22 07:06:39;;;;;;;102.18;46.70;;;;;;;10.81;100.00;100990.91;12874086;22;20038;-91
2022/10/22 07:11:41;;;;;;;90.07;42.92;;;;;;;9.98;100.00;100844.84;12887742;22;20016;-85
2022/10/22 07:16:44;;;;;;;98.05;44.38;;;;;;;11.09;100.00;101009.22;12865871;22;20027;-90
2022/10/22 07:21:45;;;;;;;102.20;41.95;;;;;;;10.21;100.00;100859.50;12894720;22;20142;-92
2022/10/22 07:26:45;;;;;;;90.93;41.95;;;;;;;10.03;100.00;100841.38;12892236;22;20061;-94
2022/10/22 07:31:45;;;;;;;90.80;41.38;;;;;;;10.23;100.00;100873.84;12859360;22;20038;-85
2022/10/22 07:36:46;;;;;;;79.13;38.70;;;;;;;10.42;100.00;100874.44;12930330;22;20438;-93
2022/10/22 07:41:46;;;;;;;97.63;42.20;;;;;;;10.46;100.00;100886.63;12889512;22;20414;-87
2022/10/22 07:46:47;;;;;;;84.82;38.55;;;;;;;11.81;100.00;101043.19;12897924;22;20043;-87
2022/10/22 07:51:47;;;;;;;80.65;39.10;;;;;;;11.52;100.00;101006.72;12889485;22;20026;-92
2022/10/22 07:56:48;;;;;;;79.03;36.72;;;;;;;11.07;100.00;100872.81;12884357;22;20011;-87
2022/10/22 08:01:48;;;;;;;82.82;37.15;;;;;;;11.52;100.00;100982.75;12911100;22;20082;-87
2022/10/22 08:06:49;;;;;;;67.47;30.73;;;;;;;11.26;100.00;100903.59;12887090;22;20491;-87
2022/10/22 08:11:50;;;;;;;57.90;29.08;;;;;;;10.65;100.00;100783.34;12909817;22;20027;-87
2022/10/22 08:16:50;;;;;;;60.60;29.17;;;;;;;11.19;100.00;100867.16;12898024;22;20015;-88
2022/10/22 08:21:51;;;;;;;47.40;27.00;;;;;;;11.69;100.00;100951.50;12890848;22;20022;-87
2022/10/22 08:26:54;;;;;;;48.65;25.00;;;;;;;11.42;100.00;100897.16;12886523;22;20019;-85
2022/10/22 08:31:55;;;;;;;52.13;24.20;;;;;;;11.55;100.00;100906.94;12889066;22;20012;-87
2022/10/22 08:36:55;;;;;;;39.17;20.25;;;;;;;11.81;100.00;100927.34;12914616;22;20004;-88
2022/10/22 08:42:19;;;;;;;42.08;21.40;;;;;;;13.00;100.00;101097.59;12889208;22;20453;-87
2022/10/22 08:47:42;;;;;;;39.45;19.48;;;;;;;13.08;100.00;101106.25;12941242;22;19999;-88
2022/10/22 08:52:43;;;;;;;33.97;18.00;;;;;;;12.99;100.00;101104.25;12915388;22;20015;-87
2022/10/22 08:58:05;;;;;;;36.80;16.40;;;;;;;13.29;100.00;101106.41;12889859;22;20019;-95
2022/10/22 09:03:26;;;;;;;38.88;16.73;;;;;;;13.43;100.00;101113.13;12915248;22;20071;-88
2022/10/22 09:08:27;;;;;;;30.73;14.43;;;;;;;12.20;100.00;100940.97;12890271;22;20330;-87
2022/10/22 09:13:27;;;;;;;24.27;11.38;;;;;;;12.64;100.00;100975.78;12906004;22;20103;-88
2022/10/22 09:18:28;;;;;;;24.75;11.18;;;;;;;13.30;100.00;101036.19;12891181;22;20003;-87
2022/10/22 09:23:49;;;;;;;23.65;10.88;;;;;;;12.34;100.00;100888.03;12915534;22;20095;-88
2022/10/22 09:28:50;;;;;;;21.83;9.57;;;;;;;12.81;100.00;100907.38;12892367;22;20043;-85
2022/10/22 09:33:50;;;;;;;21.75;8.52;;;;;;;13.41;100.00;100965.16;12890381;22;20338;-86
2022/10/22 09:38:52;;;;;;;17.77;7.65;;;;;;;13.81;100.00;101003.19;12892072;22;20082;-87
2022/10/22 09:43:52;;;;;;;15.60;7.72;;;;;;;14.26;100.00;101034.84;12891235;22;20015;-85
2022/10/22 09:49:05;;;;;;;17.15;8.50;;;;;;;13.30;100.00;100873.06;12942218;22;20461;-88
2022/10/22 09:54:15;;;;;;;18.98;6.07;;;;;;;14.16;100.00;100973.06;12901130;22;20469;-86
2022/10/22 09:59:16;;;;;;;17.50;4.95;;;;;;;14.47;100.00;100977.50;12889361;22;20012;-92
2022/10/22 10:04:16;;;;;;;11.93;5.57;;;;;;;15.06;100.00;101063.94;12890541;22;20010;-88
2022/10/22 10:09:18;;;;;;;32.95;8.43;;;;;;;14.15;100.00;100868.97;12889232;22;20020;-87
2022/10/22 10:14:27;;;;;;;12.27;5.22;;;;;;;14.79;100.00;100950.63;12887600;22;20024;-90
2022/10/22 10:19:46;;;;;;;11.93;4.70;;;;;;;15.84;100.00;101126.47;12892041;22;20015;-90
2022/10/22 10:24:53;;;;;;;10.50;4.25;;;;;;;15.40;100.00;101055.81;12939899;22;20004;-90
2022/10/22 10:30:12;;;;;;;13.45;5.00;;;;;;;15.00;100.00;101015.97;12923033;22;20019;-91
2022/10/22 10:35:15;;;;;;;16.20;5.72;;;;;;;15.07;100.00;101066.44;12913347;22;20338;-90
2022/10/22 10:40:40;;;;;;;11.52;4.22;;;;;;;14.86;100.00;101018.53;12919041;22;20377;-91
2022/10/22 10:45:50;;;;;;;12.50;4.10;;;;;;;15.57;100.00;101160.13;12915353;22;20004;-90
2022/10/22 10:51:26;;;;;;;10.73;4.63;;;;;;;13.80;100.00;100904.66;12938902;22;20024;-90
2022/10/22 10:56:29;;;;;;;16.83;5.85;;;;;;;15.52;100.00;101159.00;12940003;22;20042;-90
2022/10/22 11:01:53;;;;;;;13.48;4.60;;;;;;;15.66;100.00;101155.63;12935465;22;20004;-90
2022/10/22 11:06:54;;;;;;;13.35;5.43;;;;;;;15.21;100.00;101102.72;12915734;22;25316;-90
2022/10/22 11:12:21;;;;;;;13.25;5.38;;;;;;;15.71;100.00;101180.63;12888663;22;20042;-90
2022/10/22 11:17:22;;;;;;;12.63;5.70;;;;;;;14.65;100.00;101033.50;12834795;22;20043;-90
2022/10/22 11:22:29;;;;;;;11.63;5.57;;;;;;;14.91;100.00;101081.44;12825510;22;20058;-90
2022/10/22 11:27:51;;;;;;;11.52;5.47;;;;;;;15.62;100.00;101185.06;12826899;22;20419;-91
2022/10/22 11:32:57;;;;;;;13.40;5.97;;;;;;;14.40;100.00;101032.34;12839861;22;20020;-90
2022/10/22 11:37:57;;;;;;;12.52;5.75;;;;;;;14.38;100.00;101028.19;12862836;22;20434;-90
2022/10/22 11:43:02;;;;;;;15.68;6.43;;;;;;;14.94;100.00;101136.31;12824148;22;20008;-91
2022/10/22 11:48:19;;;;;;;13.52;4.95;;;;;;;14.03;100.00;100999.34;12779100;22;20629;-91
2022/10/22 11:53:37;;;;;;;12.82;6.03;;;;;;;13.39;100.00;100929.47;12803447;22;20013;-90
2022/10/22 11:58:42;;;;;;;12.07;6.65;;;;;;;15.24;100.00;101202.03;12848899;22;20012;-91
2022/10/22 12:03:46;;;;;;;16.02;7.63;;;;;;;14.17;100.00;101011.56;12825518;22;20004;-88
2022/10/22 12:08:53;;;;;;;13.40;6.07;;;;;;;15.29;100.00;101163.19;12853778;22;20463;-92
2022/10/22 12:14:11;;;;;;;10.18;5.32;;;;;;;14.88;100.00;101076.44;12852333;22;20434;-91
2022/10/22 12:19:17;;;;;;;14.77;6.20;;;;;;;15.40;100.00;101161.25;12912354;22;20057;-90
2022/10/22 12:24:21;;;;;;;11.10;5.03;;;;;;;15.27;100.00;101109.09;12890729;22;20061;-92
2022/10/22 12:29:23;;;;;;;12.77;4.60;;;;;;;15.82;100.00;101167.56;12887700;22;20015;-90
2022/10/22 12:34:24;;;;;;;8.32;4.40;;;;;;;16.09;100.00;101204.13;12887227;22;20006;-91
2022/10/22 12:39:25;;;;;;;15.95;5.38;;;;;;;15.00;100.00;101020.69;12888380;22;20035;-90
2022/10/22 12:44:26;;;;;;;17.77;5.22;;;;;;;15.62;100.00;101168.41;12885978;22;20007;-91
2022/10/22 12:49:35;;;;;;;15.63;6.40;;;;;;;15.36;100.00;101151.81;12909438;22;20023;-90
2022/10/22 12:54:36;;;;;;;17.80;6.70;;;;;;;14.88;100.00;101087.50;12886529;22;20434;-91
2022/10/22 12:59:37;;;;;;;14.48;6.82;;;;;;;14.54;100.00;101063.13;12873688;22;20095;-91
2022/10/22 13:04:37;;;;;;;16.38;6.75;;;;;;;15.31;100.00;101169.28;12889673;22;20011;-90
2022/10/22 13:09:42;;;;;;;13.15;6.78;;;;;;;15.39;100.00;101154.03;12891742;22;20018;-90
2022/10/22 13:14:44;;;;;;;19.05;6.80;;;;;;;14.11;100.00;100946.22;12891898;22;20383;-91
2022/10/22 13:19:53;;;;;;;14.98;5.40;;;;;;;15.86;100.00;101219.47;12915648;22;20015;-90
2022/10/22 13:24:55;;;;;;;8.90;5.93;;;;;;;14.85;100.00;101096.41;12941469;22;20019;-86
2022/10/22 13:29:55;;;;;;;13.82;6.28;;;;;;;15.35;100.00;101191.75;12890499;22;20433;-89
2022/10/22 13:34:57;;;;;;;9.70;6.50;;;;;;;15.79;100.00;101232.78;12889003;22;20000;-83
2022/10/22 13:39:57;;;;;;;13.45;6.28;;;;;;;14.91;100.00;101076.72;12890261;22;20008;-85
2022/10/22 13:44:58;;;;;;;12.13;5.13;;;;;;;15.73;100.00;101147.88;12915512;22;20008;-85
2022/10/22 13:50:00;;;;;;;10.68;5.28;;;;;;;16.39;100.00;101209.81;12918098;22;20020;-83
2022/10/22 13:55:01;;;;;;;8.98;4.38;;;;;;;15.67;100.00;101093.47;12892769;22;20029;-85
2022/10/22 14:00:01;;;;;;;9.70;4.38;;;;;;;16.32;100.00;101210.97;12917814;22;20088;-83
2022/10/22 14:05:03;;;;;;;12.10;4.32;;;;;;;15.96;100.00;101174.19;12891448;22;20018;-86
2022/10/22 14:10:18;;;;;;;7.65;4.50;;;;;;;16.16;100.00;101189.91;12867621;22;20095;-86
2022/10/22 14:15:20;;;;;;;11.70;4.50;;;;;;;16.91;100.00;101173.13;12916448;22;20081;-87
2022/10/22 14:20:22;;;;;;;9.82;2.80;;;;;;;17.76;100.00;101115.25;12878395;22;20061;-86
2022/10/22 14:25:23;;;;;;;8.88;2.95;;;;;;;18.21;100.00;101204.13;12896400;22;20000;-86
2022/10/22 14:30:24;;;;;;;23.10;6.13;;;;;;;18.17;100.00;101176.06;12917967;22;20026;-87
2022/10/22 14:35:25;;;;;;;10.60;3.90;;;;;;;18.16;100.00;101196.69;12892417;22;20006;-86
2022/10/22 14:40:25;;;;;;;8.63;3.40;;;;;;;18.71;100.00;101230.50;12891146;22;20470;-87
2022/10/22 14:45:26;;;;;;;12.98;2.83;;;;;;;18.93;100.00;101217.94;12890680;22;20079;-87
2022/10/22 14:50:26;;;;;;;7.82;2.40;;;;;;;18.10;100.00;101151.31;12890650;22;20020;-87
2022/10/22 14:55:27;;;;;;;8.27;2.13;;;;;;;17.75;100.00;101217.44;12891308;22;20437;-86
2022/10/22 15:00:28;;;;;;;10.10;2.00;;;;;;;16.96;100.00;101241.78;12891609;22;20316;-86
2022/10/22 15:05:28;;;;;;;6.18;2.25;;;;;;;16.43;100.00;101208.13;12891939;22;20027;-87
2022/10/22 15:10:29;;;;;;;15.70;5.72;;;;;;;16.28;100.00;101226.53;12914944;22;20019;-87
2022/10/22 15:15:29;;;;;;;8.68;2.65;;;;;;;15.68;100.00;101145.09;12890286;22;20349;-84
2022/10/22 15:20:30;;;;;;;5.95;2.40;;;;;;;16.22;100.00;101235.19;12890786;22;20441;-84
2022/10/22 15:25:30;;;;;;;8.57;1.80;;;;;;;16.11;100.00;101239.94;12890976;22;20441;-84
2022/10/22 15:30:31;;;;;;;10.25;2.00;;;;;;;15.66;100.00;101230.56;12890677;22;20016;-85
2022/10/22 15:35:31;;;;;;;8.00;1.60;;;;;;;15.57;100.00;101233.09;12915883;22;20026;-84
2022/10/22 15:40:32;;;;;;;7.85;2.00;;;;;;;15.49;100.00;101256.66;12916056;22;20057;-86
2022/10/22 15:45:32;;;;;;;9.73;1.80;;;;;;;14.72;100.00;101206.69;12891517;22;20007;-88
2022/10/22 15:50:36;;;;;;;11.85;1.98;;;;;;;14.68;100.00;101249.09;12889723;22;20406;-87
2022/10/22 15:55:37;;;;;;;22.67;3.55;;;;;;;14.71;100.00;101321.41;12890927;22;20099;-87
2022/10/22 16:00:37;;;;;;;7.38;1.33;;;;;;;13.51;100.00;101148.59;12865482;22;20010;-90
2022/10/22 16:05:40;;;;;;;8.48;2.05;;;;;;;13.20;100.00;101132.88;12885634;22;20078;-91
2022/10/22 16:10:47;;;;;;;13.55;2.78;;;;;;;13.73;100.00;101291.50;12805435;22;20016;-91
2022/10/22 16:15:53;;;;;;;8.13;2.45;;;;;;;12.69;100.00;101136.03;12813297;22;20077;-90
2022/10/22 16:20:53;;;;;;;7.85;1.80;;;;;;;13.40;100.00;101301.75;12819782;22;20019;-90
2022/10/22 16:26:00;;;;;;;11.77;2.85;;;;;;;12.34;100.00;101122.72;12836087;22;20011;-90
2022/10/22 16:31:04;;;;;;;;;;;;;;;13.59;100.00;101351.16;12893915;22;20511;-90
2022/10/22 16:36:05;;;;;;;12.32;2.47;;;;;;;12.38;100.00;101182.69;12895045;22;20816;-90
2022/10/22 16:41:13;;;;;;;11.68;2.95;;;;;;;12.68;100.00;101289.91;12862832;22;20007;-86
2022/10/22 16:46:15;;;;;;;11.88;3.38;;;;;;;12.59;100.00;101304.41;12918616;22;20004;-87
2022/10/22 16:51:17;;;;;;;13.10;2.30;;;;;;;11.98;100.00;101250.06;12878800;22;20016;-88
2022/10/22 16:56:18;;;;;;;15.35;3.00;;;;;;;12.05;100.00;101286.63;12863232;22;20015;-88
2022/10/22 17:01:24;;;;;;;15.40;3.60;;;;;;;11.17;100.00;101206.34;12842798;22;20438;-88
2022/10/22 17:06:25;;;;;;;16.95;4.38;;;;;;;12.22;100.00;101396.16;12879749;22;20065;-87
2022/10/22 17:11:28;;;;;;;15.48;3.60;;;;;;;10.17;100.00;101097.69;12834148;22;20091;-92
2022/10/22 17:16:29;;;;;;;12.98;2.95;;;;;;;10.78;100.00;101249.47;12811710;22;20024;-88
2022/10/22 17:21:29;;;;;;;18.75;3.58;;;;;;;11.16;100.00;101350.72;12848129;22;20008;-89
2022/10/22 17:26:33;;;;;;;17.88;2.85;;;;;;;10.04;100.00;101162.09;12763015;22;20031;-89
2022/10/22 17:31:36;;;;;;;18.92;3.20;;;;;;;10.41;100.00;101271.84;12892285;22;20047;-88
2022/10/22 17:36:39;;;;;;;19.95;3.10;;;;;;;9.48;100.00;101134.25;12821812;22;20024;-89
2022/10/22 17:41:42;;;;;;;13.07;2.90;;;;;;;9.65;100.00;101159.06;12758948;22;20078;-90
2022/10/22 17:46:45;;;;;;;18.90;3.53;;;;;;;10.22;100.00;101260.97;12732451;22;20378;-91
2022/10/22 17:51:54;;;;;;;17.13;3.03;;;;;;;10.96;100.00;101397.19;12818422;22;20027;-92
2022/10/22 17:57:00;;;;;;;19.08;3.25;;;;;;;9.64;100.00;101229.72;12816382;22;20020;-91
2022/10/22 18:02:09;;;;;;;18.00;3.92;;;;;;;9.53;100.00;101203.09;12742134;22;20008;-92
2022/10/22 18:07:09;;;;;;;16.80;4.13;;;;;;;9.75;100.00;101279.44;12752335;22;20056;-91
2022/10/22 18:12:12;;;;;;;20.08;4.57;;;;;;;9.74;100.00;101300.63;12824107;22;20083;-90
2022/10/22 18:17:16;;;;;;;25.90;5.75;;;;;;;9.44;100.00;101285.03;12818273;22;20360;-91
2022/10/22 18:22:17;;;;;;;16.75;3.97;;;;;;;9.04;100.00;101247.22;12717576;22;20005;-90
2022/10/22 18:27:17;;;;;;;13.70;4.75;;;;;;;8.52;100.00;101166.50;12827652;22;20034;-90
2022/10/22 18:32:20;;;;;;;18.88;4.70;;;;;;;9.04;100.00;101258.19;12876217;22;20035;-92
2022/10/22 18:37:21;;;;;;;18.30;4.65;;;;;;;8.95;100.00;101287.06;12862330;22;20020;-89
2022/10/22 18:42:21;;;;;;;21.48;5.10;;;;;;;8.41;100.00;101232.09;12854483;22;20019;-91
2022/10/22 18:47:22;;;;;;;24.30;6.65;;;;;;;8.23;100.00;101207.38;12898667;22;20486;-91
2022/10/22 18:52:23;;;;;;;26.17;6.05;;;;;;;9.16;100.00;101375.53;12877889;22;20014;-91
2022/10/22 18:57:24;;;;;;;22.73;6.50;;;;;;;8.68;100.00;101341.47;12855504;22;20105;-91
2022/10/22 19:02:24;;;;;;;18.73;5.72;;;;;;;8.39;100.00;101304.66;12870199;22;20014;-88
2022/10/22 19:07:25;;;;;;;16.95;5.68;;;;;;;9.33;100.00;101447.97;12859351;22;20014;-88
2022/10/22 19:12:26;;;;;;;24.60;6.97;;;;;;;8.65;100.00;101342.78;12911790;22;20039;-88
2022/10/22 19:17:26;;;;;;;15.30;5.20;;;;;;;9.06;100.00;101431.84;12854421;22;20035;-88
2022/10/22 19:22:27;;;;;;;23.02;8.20;;;;;;;8.39;100.00;101332.09;12883500;22;20004;-87
2022/10/22 19:27:30;;;;;;;22.63;6.30;;;;;;;7.87;100.00;101214.53;12909481;22;20027;-91
2022/10/22 19:32:31;;;;;;;33.80;16.38;;;;;;;8.72;100.00;101394.03;12855436;22;20452;-87
2022/10/22 19:37:32;;;;;;;26.52;9.43;;;;;;;8.68;100.00;101390.88;12872137;22;20014;-91
2022/10/22 19:42:32;;;;;;;28.17;9.18;;;;;;;8.06;100.00;101286.66;12886085;22;20008;-86
2022/10/22 19:47:33;;;;;;;21.23;7.72;;;;;;;8.35;100.00;101330.88;12886528;22;20053;-86
2022/10/22 19:52:34;;;;;;;21.70;7.22;;;;;;;8.72;100.00;101402.25;12909930;22;20007;-87
2022/10/22 19:57:34;;;;;;;21.98;8.00;;;;;;;8.08;100.00;101320.19;12873867;22;20008;-90
2022/10/22 20:02:35;;;;;;;18.35;7.13;;;;;;;8.15;100.00;101347.56;12887886;22;20003;-91
2022/10/22 20:07:36;;;;;;;21.40;7.65;;;;;;;8.06;100.00;101352.47;12838445;22;20016;-91
2022/10/22 20:12:36;;;;;;;20.98;8.18;;;;;;;8.65;100.00;101436.13;12767339;22;20425;-88
2022/10/22 20:17:37;;;;;;;23.00;8.00;;;;;;;8.94;100.00;101496.84;12914299;22;20008;-88
2022/10/22 20:22:38;;;;;;;19.13;7.90;;;;;;;7.20;100.00;101203.41;12860531;22;20035;-92
2022/10/22 20:27:38;;;;;;;18.27;8.45;;;;;;;7.16;100.00;101224.09;12895535;22;20093;-91
2022/10/22 20:32:39;;;;;;;24.27;9.30;;;;;;;8.78;100.00;101472.72;12879467;22;20034;-93
2022/10/22 20:37:39;;;;;;;24.65;9.65;;;;;;;9.28;100.00;101585.19;12856875;22;20007;-89
2022/10/22 20:42:40;;;;;;;19.70;9.30;;;;;;;7.23;100.00;101233.91;12864349;22;20011;-88
2022/10/22 20:47:41;;;;;;;21.88;9.68;;;;;;;8.37;100.00;101419.28;12861722;22;20034;-88
2022/10/22 20:52:41;;;;;;;22.38;9.75;;;;;;;7.65;100.00;101323.78;12868463;22;20016;-92
2022/10/22 20:57:42;;;;;;;21.98;9.30;;;;;;;8.39;100.00;101430.88;12891517;22;20058;-88
2022/10/22 21:02:45;;;;;;;22.73;11.10;;;;;;;7.11;100.00;101238.47;12891456;22;20038;-91
2022/10/22 21:07:46;;;;;;;25.02;10.25;;;;;;;8.14;100.00;101396.06;12867491;22;20019;-89
2022/10/22 21:12:46;;;;;;;23.33;10.85;;;;;;;7.70;100.00;101345.84;12883680;22;20027;-89
2022/10/22 21:17:47;;;;;;;17.30;10.00;;;;;;;8.53;100.00;101475.53;12889903;22;20097;-91
2022/10/22 21:22:48;;;;;;;27.90;10.60;;;;;;;8.24;100.00;101406.53;12892534;22;20012;-88
2022/10/22 21:27:48;;;;;;;24.70;9.85;;;;;;;8.00;100.00;101380.81;12913906;22;20031;-89
2022/10/22 21:32:50;;;;;;;24.10;10.68;;;;;;;8.45;100.00;101469.28;12858850;22;20016;-90
2022/10/22 21:37:54;;;;;;;19.92;11.85;;;;;;;8.49;100.00;101469.63;12880884;22;20043;-90
2022/10/22 21:42:54;;;;;;;31.23;11.55;;;;;;;8.45;100.00;101451.94;12861528;22;20004;-92
2022/10/22 21:47:59;;;;;;;18.42;10.43;;;;;;;8.56;100.00;101432.00;12797406;22;20035;-93
2022/10/22 21:52:59;;;;;;;27.75;13.85;;;;;;;8.08;100.00;101361.31;12771182;22;20016;-92
2022/10/22 21:58:00;;;;;;;25.02;12.55;;;;;;;7.84;100.00;101352.91;12866291;22;20034;-88
2022/10/22 22:03:00;;;;;;;33.05;12.88;;;;;;;7.80;100.00;101313.31;12855801;22;20010;-90
2022/10/22 22:08:03;;;;;;;36.42;15.27;;;;;;;7.72;100.00;101304.53;12823374;22;20015;-91
2022/10/22 22:13:07;;;;;;;36.75;16.88;;;;;;;7.82;100.00;101300.19;12853620;22;20015;-91
2022/10/22 22:18:08;;;;;;;33.28;18.63;;;;;;;7.46;100.00;101268.06;12863323;22;20493;-89
2022/10/22 22:23:08;;;;;;;34.70;19.38;;;;;;;9.04;100.00;101524.63;12774421;22;20019;-89
2022/10/22 22:28:09;;;;;;;34.85;18.08;;;;;;;8.25;100.00;101398.09;12870306;22;20019;-88
2022/10/22 22:33:10;;;;;;;40.05;19.20;;;;;;;8.39;100.00;101459.16;12907332;22;20016;-88
2022/10/22 22:38:10;;;;;;;90.53;52.75;;;;;;;7.88;100.00;101370.59;12869467;22;20010;-88
2022/10/22 22:43:11;;;;;;;78.25;44.95;;;;;;;7.71;100.00;101352.16;12906541;22;20103;-88